Time;durP1;ratioP1;P1;durP2;ratioP2;P2;SDS_P1;SDS_P2;PMS_P1;PMS_P2;Temp;Humidity;BMP_temperature;BMP_pressure;BME280_temperature;BME280_humidity;BME280_pressure;Samples;Min_cycle;Max_cycle;Signal;HPM_P1;HPM_P2
2023/01/04 00:00:19;;;;;;;6.38;2.80;;;;;;;8.53;80.25;101876.81;5024515;28;20084;-66
2023/01/04 00:02:44;;;;;;;7.65;2.92;;;;;;;8.50;80.82;101880.00;5030570;28;20029;-67
2023/01/04 00:05:10;;;;;;;9.15;2.83;;;;;;;8.49;80.50;101875.56;5021291;28;20523;-67
2023/01/04 00:07:35;;;;;;;8.00;2.58;;;;;;;8.47;81.40;101865.75;5010610;28;20535;-67
2023/01/04 00:10:00;;;;;;;13.35;3.00;;;;;;;8.48;81.30;101848.94;5018965;28;20072;-67
2023/01/04 00:12:26;;;;;;;7.93;3.30;;;;;;;8.49;81.88;101853.41;5025141;28;20029;-67
2023/01/04 00:14:51;;;;;;;6.97;3.20;;;;;;;8.47;81.74;101841.69;5011227;28;20026;-67
2023/01/04 00:17:17;;;;;;;8.73;2.80;;;;;;;8.48;81.72;101832.31;5030956;28;20120;-67
2023/01/04 00:19:44;;;;;;;13.57;3.05;;;;;;;8.46;82.71;101834.47;5019531;28;20469;-67
2023/01/04 00:22:10;;;;;;;9.10;3.00;;;;;;;8.43;82.73;101829.38;5016831;28;20041;-67
2023/01/04 00:24:35;;;;;;;12.52;3.20;;;;;;;8.41;82.86;101825.09;5025810;28;20032;-67
2023/01/04 00:27:00;;;;;;;7.10;2.70;;;;;;;8.44;83.13;101831.06;5022497;28;20077;-67
2023/01/04 00:29:26;;;;;;;9.73;2.97;;;;;;;8.48;82.95;101831.47;5027624;28;20037;-66
2023/01/04 00:31:51;;;;;;;8.88;2.78;;;;;;;8.47;82.99;101814.03;5028578;28;20433;-67
2023/01/04 00:34:17;;;;;;;6.72;2.58;;;;;;;8.44;83.47;101797.84;5029750;28;20033;-67
2023/01/04 00:36:42;;;;;;;9.60;3.03;;;;;;;8.43;84.08;101798.94;5030712;28;20025;-66
2023/01/04 00:39:11;;;;;;;8.00;3.35;;;;;;;8.45;83.40;101796.81;5020553;28;20046;-67
2023/01/04 00:41:40;;;;;;;6.03;2.80;;;;;;;8.45;84.35;101795.94;5009605;28;20061;-67
2023/01/04 00:44:07;;;;;;;9.65;2.85;;;;;;;8.46;83.95;101790.22;5031177;28;20033;-67
2023/01/04 00:46:33;;;;;;;8.57;2.80;;;;;;;8.46;84.38;101784.69;5031305;28;20021;-66
2023/01/04 00:48:59;;;;;;;5.63;2.85;;;;;;;8.46;84.35;101787.44;5033483;28;20037;-66
2023/01/04 00:51:24;;;;;;;7.53;2.75;;;;;;;8.48;84.50;101787.22;5021613;28;20137;-67
2023/01/04 00:53:50;;;;;;;5.82;2.40;;;;;;;8.47;84.90;101775.28;5014196;28;20025;-67
2023/01/04 00:56:15;;;;;;;6.38;2.42;;;;;;;8.50;84.90;101771.25;5014600;28;20025;-67
2023/01/04 00:58:41;;;;;;;8.55;2.80;;;;;;;8.52;84.71;101777.41;5032246;28;20029;-67
2023/01/04 01:01:07;;;;;;;9.73;2.92;;;;;;;8.53;85.01;101770.84;5032213;28;20044;-67
2023/01/04 01:03:33;;;;;;;6.47;2.60;;;;;;;8.55;84.85;101766.75;5033815;28;20053;-66
2023/01/04 01:06:02;;;;;;;6.30;2.38;;;;;;;8.55;85.40;101763.16;5019271;28;20081;-66
2023/01/04 01:08:28;;;;;;;7.97;2.45;;;;;;;8.57;85.56;101753.56;5013499;28;20184;-67
2023/01/04 01:10:54;;;;;;;7.65;2.67;;;;;;;8.56;85.76;101762.91;5020691;28;20026;-67
2023/01/04 01:13:21;;;;;;;4.72;2.40;;;;;;;8.56;85.77;101762.91;5033569;28;20492;-67
2023/01/04 01:15:46;;;;;;;6.25;2.55;;;;;;;8.55;85.70;101733.56;5033561;28;20033;-67
2023/01/04 01:18:12;;;;;;;3.28;1.80;;;;;;;8.59;85.42;101748.66;5026198;28;20025;-67
2023/01/04 01:20:43;;;;;;;4.45;2.10;;;;;;;8.60;85.66;101753.09;5031458;28;20102;-67
2023/01/04 01:23:09;;;;;;;7.00;2.20;;;;;;;8.62;85.68;101744.59;5033016;28;20038;-66
2023/01/04 01:25:35;;;;;;;6.70;2.25;;;;;;;8.65;85.58;101744.19;5033649;28;20021;-67
2023/01/04 01:28:00;;;;;;;5.80;1.80;;;;;;;8.70;85.65;101749.06;5029435;28;20443;-66
2023/01/04 01:30:26;;;;;;;4.72;1.80;;;;;;;8.72;86.00;101744.13;5013370;28;20037;-67
2023/01/04 01:32:51;;;;;;;4.82;2.22;;;;;;;8.73;85.47;101743.09;5013878;28;20392;-67
2023/01/04 01:35:16;;;;;;;4.88;2.08;;;;;;;8.76;85.79;101735.19;5028883;28;20036;-67
2023/01/04 01:37:41;;;;;;;3.88;1.73;;;;;;;8.75;85.33;101729.84;5029202;28;20037;-67
2023/01/04 01:40:08;;;;;;;2.70;1.65;;;;;;;8.74;86.36;101737.31;5032028;28;20030;-67
2023/01/04 01:42:33;;;;;;;4.55;2.15;;;;;;;8.75;86.04;101733.47;5032821;28;20120;-67
2023/01/04 01:45:01;;;;;;;3.00;1.67;;;;;;;8.76;86.21;101731.56;5027755;28;20022;-66
2023/01/04 01:47:43;;;;;;;6.90;2.25;;;;;;;8.75;86.24;101724.31;5032536;28;20037;-66
2023/01/04 01:50:24;;;;;;;4.18;2.10;;;;;;;8.76;86.74;101735.19;5021100;28;20045;-66
2023/01/04 01:52:52;;;;;;;4.05;1.90;;;;;;;8.74;86.61;101719.88;5013922;28;20041;-67
2023/01/04 01:55:18;;;;;;;3.10;1.80;;;;;;;8.75;86.37;101727.94;5013457;28;20029;-67
2023/01/04 01:57:47;;;;;;;2.30;1.60;;;;;;;8.73;86.81;101720.94;5025573;28;20362;-67
2023/01/04 02:00:14;;;;;;;5.72;2.10;;;;;;;8.72;86.78;101722.00;5018100;28;20084;-67
2023/01/04 02:02:46;;;;;;;6.05;1.52;;;;;;;8.77;87.32;101719.44;5015550;28;20118;-67
2023/01/04 02:05:12;;;;;;;1.87;1.50;;;;;;;8.78;87.04;101719.19;5017975;28;20045;-67
2023/01/04 02:07:37;;;;;;;4.13;1.98;;;;;;;8.80;86.65;101730.03;5013198;28;20424;-67
2023/01/04 02:10:03;;;;;;;5.65;1.70;;;;;;;8.83;86.55;101724.91;5013594;28;20041;-67
2023/01/04 02:12:29;;;;;;;5.57;1.85;;;;;;;8.85;87.02;101730.25;5017912;28;20147;-66
2023/01/04 02:14:54;;;;;;;4.45;2.10;;;;;;;8.88;86.98;101712.31;5027761;28;20025;-66
2023/01/04 02:17:43;;;;;;;4.03;1.70;;;;;;;8.88;87.58;101727.00;5024325;28;20026;-66
2023/01/04 02:20:39;;;;;;;3.05;1.48;;;;;;;8.85;87.25;101722.78;5032743;28;20116;-67
2023/01/04 02:23:28;;;;;;;2.53;1.55;;;;;;;8.88;87.14;101715.94;5031907;28;20135;-67
2023/01/04 02:26:09;;;;;;;2.75;1.60;;;;;;;8.87;87.80;101718.94;5013105;28;20034;-66
2023/01/04 02:28:40;;;;;;;2.28;1.45;;;;;;;8.87;88.13;101718.94;5013922;28;20085;-67
2023/01/04 02:31:43;;;;;;;3.10;1.50;;;;;;;8.88;87.95;101720.63;5013416;28;20500;-67
2023/01/04 02:34:44;;;;;;;3.13;1.20;;;;;;;8.93;87.92;101690.38;5013726;28;20038;-67
2023/01/04 02:37:23;;;;;;;1.88;1.60;;;;;;;8.90;87.80;101708.28;5019281;28;20435;-67
2023/01/04 02:40:07;;;;;;;3.70;1.58;;;;;;;8.93;88.29;101701.47;5031117;28;20041;-67
2023/01/04 02:45:41;;;;;;;2.38;1.52;;;;;;;8.97;87.73;101681.41;5032608;28;20068;-66
2023/01/04 02:50:56;;;;;;;3.35;1.30;;;;;;;8.97;88.57;101666.72;5013420;28;20405;-66
2023/01/04 02:53:28;;;;;;;2.17;1.20;;;;;;;8.99;88.39;101673.72;5011772;28;20049;-66
2023/01/04 02:56:10;;;;;;;3.77;1.60;;;;;;;9.00;88.25;101664.34;5012451;28;20033;-66
2023/01/04 02:59:02;;;;;;;2.00;1.48;;;;;;;9.06;87.94;101662.59;5012949;28;20136;-66
2023/01/04 03:07:55;;;;;;;1.45;1.20;;;;;;;9.09;88.23;101648.31;5030861;28;20039;-67
2023/01/04 03:10:33;;;;;;;2.55;1.15;;;;;;;9.10;88.51;101664.69;5026835;28;20393;-66
2023/01/04 03:13:09;;;;;;;1.45;1.20;;;;;;;9.10;88.42;101639.78;5011975;28;20180;-67
2023/01/04 03:15:38;;;;;;;1.83;1.30;;;;;;;9.13;88.65;101645.94;5020907;28;20041;-67
2023/01/04 03:18:22;;;;;;;2.33;1.30;;;;;;;9.16;88.32;101629.72;5031231;28;20806;-67
2023/01/04 03:20:49;;;;;;;2.38;1.48;;;;;;;9.16;88.59;101639.97;5028151;28;20425;-67
2023/01/04 03:37:23;;;;;;;2.30;1.40;;;;;;;9.19;89.34;101629.25;5023786;28;20072;-67
2023/01/04 03:48:45;;;;;;;3.47;1.85;;;;;;;9.26;89.57;101596.81;5029947;28;20091;-67
2023/01/04 03:51:15;;;;;;;2.40;1.50;;;;;;;9.27;89.37;101597.66;5020676;28;20722;-67
2023/01/04 03:53:47;;;;;;;1.92;1.70;;;;;;;9.29;89.55;101584.44;5011765;28;20767;-65
2023/01/04 03:56:15;;;;;;;2.08;1.63;;;;;;;9.29;89.61;101592.75;5018039;28;20026;-66
2023/01/04 03:58:41;;;;;;;3.88;1.52;;;;;;;9.30;89.27;101577.81;5017226;28;20029;-66
2023/01/04 04:01:06;;;;;;;1.75;1.52;;;;;;;9.34;89.69;101584.59;5023569;28;20034;-66
2023/01/04 04:09:00;;;;;;;3.00;1.88;;;;;;;9.37;89.06;101575.84;5031691;28;20053;-66
2023/01/04 04:11:29;;;;;;;1.85;1.60;;;;;;;9.39;89.40;101573.69;5028962;28;20025;-66
2023/01/04 04:13:54;;;;;;;2.78;1.90;;;;;;;9.41;89.42;101579.84;5024890;28;20041;-66
2023/01/04 04:16:19;;;;;;;2.13;1.70;;;;;;;9.43;89.26;101566.63;5030317;28;20033;-65
2023/01/04 04:18:46;;;;;;;3.05;1.83;;;;;;;9.43;89.79;101574.06;5017507;28;20088;-66
2023/01/04 04:21:12;;;;;;;2.97;1.70;;;;;;;9.43;90.03;101574.94;5028608;28;20035;-66
2023/01/04 04:23:37;;;;;;;4.65;1.80;;;;;;;9.45;89.83;101561.69;5031289;28;20439;-66
2023/01/04 04:26:03;;;;;;;2.22;1.65;;;;;;;9.47;89.68;101542.94;5030627;28;20448;-66
2023/01/04 04:28:28;;;;;;;2.78;1.88;;;;;;;9.47;90.10;101551.25;5029517;28;20045;-66
2023/01/04 04:30:54;;;;;;;2.95;1.80;;;;;;;9.50;90.03;101570.16;5026556;28;20021;-66
2023/01/04 04:33:19;;;;;;;5.57;1.77;;;;;;;9.50;90.13;101555.47;5017064;28;20389;-66
2023/01/04 04:35:48;;;;;;;6.13;2.08;;;;;;;9.52;89.97;101537.53;5011221;28;20087;-66
2023/01/04 04:38:13;;;;;;;3.60;2.22;;;;;;;9.52;90.40;101545.00;5010986;28;20018;-66
2023/01/04 04:43:23;;;;;;;4.57;2.00;;;;;;;9.52;90.40;101528.38;5025347;28;20504;-66
2023/01/04 04:45:48;;;;;;;2.45;2.15;;;;;;;9.55;90.16;101530.72;5030344;28;20033;-66
2023/01/04 04:48:13;;;;;;;3.58;1.95;;;;;;;9.54;90.84;101521.50;5026515;28;20026;-66
2023/01/04 04:50:38;;;;;;;2.60;2.00;;;;;;;9.57;90.41;101532.16;5028730;28;20088;-66
2023/01/04 04:53:04;;;;;;;4.25;2.17;;;;;;;9.58;90.56;101527.44;5011501;28;20116;-66
2023/01/04 04:55:29;;;;;;;3.47;2.05;;;;;;;9.60;90.64;101519.75;5010263;28;20026;-66
2023/01/04 04:57:54;;;;;;;3.67;2.15;;;;;;;9.60;90.64;101519.75;5011110;28;20026;-66
2023/01/04 05:00:20;;;;;;;2.10;1.80;;;;;;;9.63;90.47;101519.31;5010344;28;20022;-66
2023/01/04 05:02:45;;;;;;;2.60;2.13;;;;;;;9.63;90.65;101510.13;5012027;28;20417;-66
2023/01/04 05:05:11;;;;;;;4.05;2.30;;;;;;;9.66;90.69;101523.53;5018373;28;20037;-66
2023/01/04 05:07:36;;;;;;;3.90;2.03;;;;;;;9.67;89.78;101514.13;5029307;28;20146;-66
2023/01/04 05:10:01;;;;;;;4.35;2.33;;;;;;;9.69;90.70;101511.97;5014813;28;20148;-66
2023/01/04 05:15:11;;;;;;;3.72;2.00;;;;;;;9.71;90.00;101504.31;5009914;28;20176;-67
2023/01/04 05:17:36;;;;;;;3.65;2.10;;;;;;;9.74;90.19;101498.25;5010534;28;20108;-66
2023/01/04 05:20:02;;;;;;;3.95;2.20;;;;;;;9.75;90.39;101499.97;5023017;28;20143;-66
2023/01/04 05:22:28;;;;;;;3.33;2.00;;;;;;;9.76;90.40;101501.66;5025778;28;20042;-67
2023/01/04 05:24:53;;;;;;;3.63;2.10;;;;;;;9.77;90.09;101487.56;5024916;28;20037;-66
2023/01/04 05:27:18;;;;;;;2.65;1.80;;;;;;;9.78;90.38;101482.84;5019995;28;20029;-66
2023/01/04 05:32:27;;;;;;;5.03;2.10;;;;;;;9.82;89.92;101478.53;5011472;28;20103;-66
2023/01/04 05:34:53;;;;;;;3.47;1.88;;;;;;;9.84;90.13;101476.41;5013590;28;20033;-67
2023/01/04 05:37:18;;;;;;;2.25;1.73;;;;;;;9.86;89.94;101473.38;5014765;28;20037;-66
2023/01/04 05:39:43;;;;;;;3.40;1.80;;;;;;;9.87;90.22;101473.16;5031048;28;20021;-66
2023/01/04 05:42:24;;;;;;;4.22;2.00;;;;;;;9.90;89.92;101472.66;5030007;28;20112;-66
2023/01/04 05:44:49;;;;;;;5.07;1.83;;;;;;;9.91;90.29;101470.78;5020197;28;20041;-66
2023/01/04 05:47:15;;;;;;;4.05;2.03;;;;;;;9.91;90.49;101482.72;5017893;28;20033;-66
2023/01/04 05:49:40;;;;;;;2.33;1.63;;;;;;;9.91;90.69;101474.38;5028636;28;20113;-66
2023/01/04 05:52:08;;;;;;;2.63;1.70;;;;;;;9.94;90.59;101459.19;5030162;28;20058;-66
2023/01/04 05:54:33;;;;;;;2.05;1.80;;;;;;;9.94;90.50;101471.16;5023497;28;20091;-66
2023/01/04 05:56:58;;;;;;;2.80;1.88;;;;;;;9.94;90.83;101448.97;5027113;28;20548;-66
2023/01/04 05:59:24;;;;;;;4.55;2.03;;;;;;;9.96;90.48;101454.28;5031230;28;20044;-66
2023/01/04 06:01:49;;;;;;;2.95;1.73;;;;;;;9.96;90.70;101446.78;5024435;28;20025;-65
2023/01/04 06:04:14;;;;;;;2.85;2.00;;;;;;;9.97;90.68;101456.78;5030565;28;20078;-66
2023/01/04 06:06:40;;;;;;;2.90;1.70;;;;;;;9.99;90.32;101462.97;5020519;28;20034;-67
2023/01/04 06:09:05;;;;;;;3.75;2.20;;;;;;;10.01;90.39;101463.56;5026851;28;20041;-67
2023/01/04 06:11:30;;;;;;;3.13;2.13;;;;;;;10.02;90.27;101465.28;5021858;28;20070;-67
2023/01/04 06:13:56;;;;;;;3.33;1.85;;;;;;;10.04;90.45;101465.88;5027122;28;20084;-65
2023/01/04 06:16:21;;;;;;;3.53;1.67;;;;;;;10.06;90.55;101468.41;5023116;28;20037;-65
2023/01/04 06:18:46;;;;;;;2.85;1.50;;;;;;;10.07;90.25;101467.34;5026733;28;20100;-67
2023/01/04 06:21:12;;;;;;;3.40;1.80;;;;;;;10.07;90.91;101473.75;5022692;28;20753;-67
2023/01/04 06:23:37;;;;;;;4.72;1.58;;;;;;;10.08;91.35;101472.66;5020189;28;20065;-68
2023/01/04 06:26:03;;;;;;;3.67;1.63;;;;;;;10.09;91.13;101471.56;5016347;28;20038;-66
2023/01/04 06:28:28;;;;;;;2.00;1.70;;;;;;;10.11;91.21;101462.19;5019517;28;20041;-66
2023/01/04 06:30:53;;;;;;;2.75;1.70;;;;;;;10.11;91.37;101453.84;5025391;28;20037;-66
2023/01/04 06:33:19;;;;;;;2.75;1.60;;;;;;;10.11;91.45;101448.31;5021572;28;20057;-66
2023/01/04 06:35:52;;;;;;;2.97;1.75;;;;;;;10.11;91.89;101438.06;5020150;28;20029;-66
2023/01/04 06:38:17;;;;;;;2.35;1.67;;;;;;;10.13;91.74;101446.13;5017060;28;20037;-66
2023/01/04 06:40:43;;;;;;;2.75;1.90;;;;;;;10.13;91.79;101455.28;5022431;28;20030;-67
2023/01/04 06:43:08;;;;;;;2.08;1.50;;;;;;;10.13;91.76;101448.91;5018976;28;20044;-69
2023/01/04 06:45:36;;;;;;;3.97;1.65;;;;;;;10.14;91.79;101456.13;5024859;28;20038;-68
2023/01/04 06:48:01;;;;;;;1.83;1.55;;;;;;;10.14;91.73;101468.09;5011184;28;20487;-67
2023/01/04 06:50:27;;;;;;;2.00;1.77;;;;;;;10.15;91.61;101474.50;5010603;28;20054;-68
2023/01/04 06:52:52;;;;;;;3.83;1.35;;;;;;;10.17;91.34;101455.66;5010857;28;20037;-66
2023/01/04 06:55:17;;;;;;;2.47;1.30;;;;;;;10.18;91.80;101465.69;5015218;28;20120;-66
2023/01/04 06:57:43;;;;;;;2.45;1.45;;;;;;;10.16;91.63;101457.59;5019738;28;20029;-68
2023/01/04 07:00:09;;;;;;;2.63;1.55;;;;;;;10.18;91.61;101449.03;5029044;28;20038;-67
2023/01/04 07:02:35;;;;;;;2.63;1.58;;;;;;;10.20;91.54;101447.72;5024672;28;20038;-69
2023/01/04 07:05:01;;;;;;;1.60;1.50;;;;;;;10.22;91.50;101453.06;5010429;28;20046;-68
2023/01/04 07:07:26;;;;;;;1.83;1.60;;;;;;;10.24;91.35;101450.88;5009510;28;20041;-68
2023/01/04 07:09:51;;;;;;;2.78;1.58;;;;;;;10.25;91.23;101447.03;5016718;28;20021;-68
2023/01/04 07:12:16;;;;;;;2.17;1.60;;;;;;;10.25;91.33;101445.13;5024927;28;20033;-64
2023/01/04 07:14:42;;;;;;;3.67;1.85;;;;;;;10.27;91.36;101442.13;5018675;28;20037;-68
2023/01/04 07:17:07;;;;;;;1.58;1.30;;;;;;;10.27;91.12;101447.66;5023189;28;20489;-69
2023/01/04 07:19:32;;;;;;;2.88;1.38;;;;;;;10.30;90.85;101438.88;5031160;28;20136;-69
2023/01/04 07:21:58;;;;;;;3.47;1.50;;;;;;;10.31;90.67;101426.69;5028827;28;20037;-68
2023/01/04 07:24:24;;;;;;;3.53;1.50;;;;;;;10.32;90.71;101418.13;5028807;28;20025;-69
2023/01/04 07:26:50;;;;;;;3.53;2.33;;;;;;;10.34;90.44;101419.84;5029258;28;20021;-68
2023/01/04 07:29:18;;;;;;;4.05;2.20;;;;;;;10.36;90.24;101412.94;5026224;28;20040;-69
2023/01/04 07:31:46;;;;;;;2.60;1.50;;;;;;;10.38;89.39;101413.56;5029459;28;20067;-69
2023/01/04 07:34:12;;;;;;;1.98;1.40;;;;;;;10.39;89.64;101406.91;5030898;28;20087;-68
2023/01/04 07:36:39;;;;;;;2.08;1.15;;;;;;;10.41;89.36;101415.84;5027330;28;20021;-68
2023/01/04 07:39:04;;;;;;;3.17;1.52;;;;;;;10.43;89.42;101407.28;5025514;28;20022;-68
2023/01/04 07:41:30;;;;;;;2.72;1.15;;;;;;;10.43;89.35;101408.13;5026184;28;20526;-68
2023/01/04 07:43:55;;;;;;;2.95;1.17;;;;;;;10.46;89.27;101404.03;5026057;28;20036;-68
2023/01/04 07:46:21;;;;;;;2.08;1.30;;;;;;;10.46;89.30;101410.44;5028981;28;20393;-68
2023/01/04 07:48:46;;;;;;;2.80;1.38;;;;;;;10.48;89.11;101422.13;5027056;28;20531;-68
2023/01/04 07:51:12;;;;;;;1.90;1.05;;;;;;;10.50;88.91;101380.28;5026804;28;20504;-66
2023/01/04 07:53:37;;;;;;;3.60;1.42;;;;;;;10.50;88.50;101386.66;5027870;28;20719;-66
2023/01/04 07:56:02;;;;;;;4.22;1.23;;;;;;;10.53;88.74;101402.84;5027200;28;20029;-66
2023/01/04 07:58:32;;;;;;;3.58;1.40;;;;;;;10.54;88.57;101401.75;5028363;28;20033;-67
2023/01/04 08:01:05;;;;;;;2.65;1.50;;;;;;;10.56;88.43;101388.47;5022517;28;20033;-66
2023/01/04 08:03:30;;;;;;;4.78;2.30;;;;;;;10.58;88.08;101377.13;5025109;28;20056;-66
2023/01/04 08:05:56;;;;;;;5.28;1.60;;;;;;;10.58;88.40;101382.69;5027150;28;20098;-66
2023/01/04 08:08:21;;;;;;;4.28;1.35;;;;;;;10.59;88.47;101381.59;5024119;28;20030;-68
2023/01/04 08:10:46;;;;;;;3.53;1.40;;;;;;;10.60;88.42;101401.88;5011564;28;20037;-66
2023/01/04 08:13:11;;;;;;;4.35;1.80;;;;;;;10.62;88.62;101395.00;5030491;28;20818;-66
2023/01/04 08:15:37;;;;;;;4.47;1.40;;;;;;;10.62;88.34;101394.16;5028550;28;20128;-67
2023/01/04 08:18:02;;;;;;;6.20;1.38;;;;;;;10.63;88.69;101410.56;5028587;28;20116;-67
2023/01/04 08:20:28;;;;;;;3.35;1.63;;;;;;;10.66;88.51;101400.94;5029784;28;20517;-66
2023/01/04 08:22:53;;;;;;;5.50;1.60;;;;;;;10.66;88.50;101395.38;5029513;28;20108;-66
2023/01/04 08:25:21;;;;;;;4.93;1.38;;;;;;;10.67;88.33;101416.50;5028273;28;20064;-67
2023/01/04 08:27:46;;;;;;;5.68;1.90;;;;;;;10.67;88.47;101403.44;5025554;28;20489;-66
2023/01/04 08:30:12;;;;;;;3.90;1.20;;;;;;;10.69;88.45;101400.41;5030436;28;20053;-65
2023/01/04 08:32:38;;;;;;;3.80;1.48;;;;;;;10.71;88.08;101392.72;5028685;28;20042;-68
2023/01/04 08:35:04;;;;;;;4.45;1.45;;;;;;;10.73;88.07;101396.94;5027735;28;20049;-68
2023/01/04 08:37:30;;;;;;;4.68;1.70;;;;;;;10.76;88.28;101417.81;5030139;28;20029;-66
2023/01/04 08:39:56;;;;;;;4.95;1.63;;;;;;;10.78;88.26;101418.44;5026053;28;20037;-66
2023/01/04 08:42:21;;;;;;;4.63;1.65;;;;;;;10.78;88.07;101421.22;5010811;28;20041;-67
2023/01/04 08:44:46;;;;;;;6.05;2.03;;;;;;;10.78;88.32;101427.59;5019075;28;20465;-66
2023/01/04 08:47:12;;;;;;;3.50;1.50;;;;;;;10.79;88.23;101420.97;5030500;28;20044;-65
2023/01/04 08:49:40;;;;;;;8.65;2.00;;;;;;;10.81;87.79;101426.28;5030343;28;20030;-66
2023/01/04 08:52:05;;;;;;;5.55;1.50;;;;;;;10.81;88.13;101432.69;5028962;28;20060;-65
2023/01/04 08:54:31;;;;;;;6.30;1.52;;;;;;;10.84;87.76;101411.91;5029575;28;20033;-65
2023/01/04 08:56:59;;;;;;;10.63;2.05;;;;;;;10.84;87.43;101411.06;5028308;28;20029;-65
2023/01/04 08:59:25;;;;;;;9.80;1.88;;;;;;;10.86;87.76;101431.13;5024180;28;20064;-65
2023/01/04 09:01:51;;;;;;;4.88;1.60;;;;;;;10.86;87.53;101423.63;5029377;28;20565;-66
2023/01/04 09:04:16;;;;;;;5.28;2.13;;;;;;;10.89;87.50;101425.09;5029607;28;20084;-67
2023/01/04 09:06:42;;;;;;;2.28;1.23;;;;;;;10.89;87.14;101423.16;5031639;28;20045;-67
2023/01/04 09:09:07;;;;;;;5.25;1.65;;;;;;;10.92;87.39;101421.81;5029663;28;20179;-69
2023/01/04 09:11:34;;;;;;;6.85;1.40;;;;;;;10.92;87.73;101422.63;5031793;28;20567;-67
2023/01/04 09:14:02;;;;;;;6.88;1.55;;;;;;;10.94;87.51;101408.53;5033344;28;20045;-65
2023/01/04 09:16:28;;;;;;;4.65;1.60;;;;;;;10.96;87.59;101423.00;5029821;28;20021;-66
2023/01/04 09:18:56;;;;;;;7.65;1.65;;;;;;;10.97;87.74;101430.28;5031778;28;20038;-66
2023/01/04 09:21:21;;;;;;;3.33;1.45;;;;;;;10.98;87.96;101401.41;5023736;28;20033;-65
2023/01/04 09:23:47;;;;;;;5.15;1.42;;;;;;;11.00;87.86;101411.19;5033953;28;20022;-65
2023/01/04 09:26:15;;;;;;;4.13;1.50;;;;;;;11.00;88.01;101416.75;5032633;28;20080;-67
2023/01/04 09:28:42;;;;;;;3.67;1.50;;;;;;;11.01;88.21;101424.00;5022305;28;20112;-67
2023/01/04 09:31:16;;;;;;;3.78;1.48;;;;;;;11.02;88.16;101422.91;5033476;28;20579;-67
2023/01/04 09:33:43;;;;;;;2.30;1.50;;;;;;;11.02;88.70;101422.91;5028525;28;20034;-68
2023/01/04 09:36:12;;;;;;;4.60;1.40;;;;;;;11.03;88.88;101437.63;5033441;28;20616;-67
2023/01/04 09:38:37;;;;;;;4.43;1.38;;;;;;;11.04;88.63;101419.84;5033758;28;20033;-66
2023/01/04 09:41:21;;;;;;;5.28;1.60;;;;;;;11.03;88.97;101424.56;5033693;28;20030;-66
2023/01/04 09:43:59;;;;;;;4.72;1.58;;;;;;;11.03;89.27;101420.97;5033715;28;20104;-66
2023/01/04 09:46:28;;;;;;;46.47;6.78;;;;;;;11.02;89.58;101425.66;5031916;28;20060;-67
2023/01/04 09:49:04;;;;;;;2.67;1.73;;;;;;;11.01;89.55;101426.78;5030510;28;20480;-69
2023/01/04 09:51:35;;;;;;;4.65;1.67;;;;;;;11.01;89.92;101412.03;5026473;28;20500;-67
2023/01/04 09:54:10;;;;;;;3.13;1.98;;;;;;;11.02;89.99;101424.84;5021325;28;20045;-67
2023/01/04 09:56:36;;;;;;;4.43;1.55;;;;;;;11.02;90.24;101422.06;5030242;28;20500;-66
2023/01/04 09:59:07;;;;;;;4.03;1.63;;;;;;;11.01;90.42;101412.03;5032298;28;20041;-66
2023/01/04 10:01:50;;;;;;;3.78;1.60;;;;;;;11.02;90.49;101416.50;5030504;28;20028;-67
2023/01/04 10:04:25;;;;;;;3.83;1.55;;;;;;;11.02;90.49;101410.94;5024009;28;20112;-66
2023/01/04 10:06:51;;;;;;;3.45;1.83;;;;;;;11.02;90.83;101409.00;5030423;28;20025;-68
2023/01/04 10:09:17;;;;;;;5.38;1.85;;;;;;;11.03;90.66;101407.91;5027442;28;20025;-67
2023/01/04 10:12:07;;;;;;;6.72;1.88;;;;;;;11.04;90.90;101405.97;5027820;28;20366;-65
2023/01/04 10:14:43;;;;;;;6.30;2.60;;;;;;;11.04;91.41;101408.75;5024137;28;20033;-66
2023/01/04 10:17:14;;;;;;;4.00;1.98;;;;;;;11.03;91.04;101412.63;5030432;28;20456;-67
2023/01/04 10:19:59;;;;;;;5.32;2.08;;;;;;;11.03;91.95;101402.34;5028131;28;20042;-66
2023/01/04 10:22:46;;;;;;;4.43;2.20;;;;;;;11.05;91.80;101399.34;5014310;28;20038;-66
2023/01/04 10:25:14;;;;;;;3.95;2.10;;;;;;;11.04;91.58;101417.09;5026152;28;20040;-67
2023/01/04 10:28:20;;;;;;;7.05;4.03;;;;;;;11.05;91.47;101404.91;5028050;28;20033;-67
2023/01/04 10:30:58;;;;;;;5.80;2.70;;;;;;;11.05;91.69;101405.75;5027777;28;20481;-65
2023/01/04 10:33:33;;;;;;;7.65;2.58;;;;;;;11.05;92.15;101404.91;5017164;28;20029;-65
2023/01/04 10:36:00;;;;;;;6.40;3.25;;;;;;;11.06;91.58;101418.53;5032620;28;20044;-65
2023/01/04 10:38:31;;;;;;;4.70;2.60;;;;;;;11.07;91.61;101399.94;5029292;28;20083;-65
2023/01/04 10:41:01;;;;;;;6.65;2.38;;;;;;;11.08;91.70;101404.41;5032113;28;20053;-67
2023/01/04 10:43:42;;;;;;;5.65;2.30;;;;;;;11.09;91.88;101388.59;5029062;28;20064;-67
2023/01/04 10:46:20;;;;;;;5.93;2.42;;;;;;;11.10;91.96;101385.56;5031332;28;20034;-66
2023/01/04 10:49:11;;;;;;;4.57;2.25;;;;;;;11.12;91.94;101382.53;5027585;28;20037;-67
2023/01/04 10:51:49;;;;;;;6.82;2.28;;;;;;;11.11;92.32;101381.69;5031041;28;20109;-67
2023/01/04 10:54:27;;;;;;;2.55;1.98;;;;;;;11.11;91.97;101386.41;5028646;28;20084;-67
2023/01/04 10:57:04;;;;;;;4.97;2.20;;;;;;;11.11;92.06;101384.47;5030556;28;20017;-67
2023/01/04 10:59:59;;;;;;;5.47;2.40;;;;;;;11.13;92.63;101381.47;5029629;28;20076;-65
2023/01/04 11:02:31;;;;;;;7.43;2.65;;;;;;;11.12;92.08;101377.84;5019545;28;20042;-68
2023/01/04 11:05:21;;;;;;;5.18;1.95;;;;;;;11.14;92.16;101385.94;5027903;28;20044;-67
2023/01/04 11:07:53;;;;;;;6.55;1.80;;;;;;;11.14;92.11;101384.00;5018352;28;20026;-68
2023/01/04 11:10:26;;;;;;;4.03;1.70;;;;;;;11.14;92.14;101391.47;5026165;28;20056;-68
2023/01/04 11:12:52;;;;;;;4.10;2.00;;;;;;;11.15;92.31;101390.38;5030549;28;20064;-67
2023/01/04 11:15:17;;;;;;;3.65;1.70;;;;;;;11.13;92.17;101387.03;5029150;28;20037;-67
2023/01/04 11:17:44;;;;;;;4.60;1.63;;;;;;;11.13;92.70;101395.34;5030806;28;20116;-70
2023/01/04 11:20:09;;;;;;;1.98;1.50;;;;;;;11.14;92.30;101391.47;5026571;28;20033;-71
2023/01/04 11:22:42;;;;;;;3.47;1.45;;;;;;;11.14;92.46;101386.78;5029661;28;20037;-72
2023/01/04 11:25:12;;;;;;;2.85;1.77;;;;;;;11.14;92.87;101392.31;5031560;28;20032;-67
2023/01/04 11:27:58;;;;;;;2.28;1.40;;;;;;;11.17;92.44;101402.13;5030810;28;20467;-68
2023/01/04 11:30:47;;;;;;;5.20;1.75;;;;;;;11.17;92.66;101388.22;5026770;28;20026;-72
2023/01/04 11:33:17;;;;;;;3.58;1.52;;;;;;;11.17;92.56;101393.78;5003347;28;20041;-72
2023/01/04 11:35:49;;;;;;;1.90;1.63;;;;;;;11.18;92.82;101392.69;5030969;28;20497;-70
2023/01/04 11:38:21;;;;;;;4.10;3.70;;;;;;;11.19;92.68;101375.75;5031309;28;20029;-70
2023/01/04 11:41:01;;;;;;;2.10;1.33;;;;;;;11.20;92.60;101379.38;5028590;28;20033;-62
2023/01/04 11:43:32;;;;;;;1.00;0.90;;;;;;;11.19;92.72;101381.31;5027752;28;20291;-67
2023/01/04 11:46:00;;;;;;;1.65;1.02;;;;;;;11.20;92.63;101391.38;5027378;28;20036;-65
2023/01/04 11:48:39;;;;;;;4.32;1.15;;;;;;;11.21;92.83;101386.66;5029521;28;20120;-67
2023/01/04 11:51:35;;;;;;;0.93;0.93;;;;;;;11.20;93.14;101379.38;5026410;28;20058;-67
2023/01/04 11:54:12;;;;;;;1.00;1.00;;;;;;;11.20;93.20;101382.16;5030975;28;20434;-72
2023/01/04 11:56:39;;;;;;;2.65;1.05;;;;;;;11.21;92.95;101383.88;5027750;28;20026;-68
2023/01/04 11:59:07;;;;;;;2.22;1.00;;;;;;;11.19;93.03;101384.09;5021607;28;20476;-67
2023/01/04 12:01:38;;;;;;;1.20;1.10;;;;;;;11.21;93.17;101383.88;5015027;28;20037;-68
2023/01/04 12:04:10;;;;;;;1.23;0.88;;;;;;;11.21;93.17;101389.44;5024527;28;20093;-68
2023/01/04 12:06:38;;;;;;;1.00;0.90;;;;;;;11.22;93.09;101382.78;5019205;28;20485;-70
2023/01/04 12:09:04;;;;;;;1.40;1.30;;;;;;;11.21;92.87;101383.88;5030292;28;20025;-71
2023/01/04 12:11:34;;;;;;;1.50;1.40;;;;;;;11.22;93.06;101380.84;5029675;28;20037;-71
2023/01/04 12:14:00;;;;;;;1.10;1.00;;;;;;;11.22;92.94;101394.72;5012241;28;20044;-72
2023/01/04 12:16:39;;;;;;;1.35;0.82;;;;;;;11.25;93.27;101393.41;5022586;28;20030;-72
2023/01/04 12:19:05;;;;;;;0.88;0.88;;;;;;;11.24;93.19;101394.50;5019056;28;20087;-71
2023/01/04 12:21:33;;;;;;;1.00;0.82;;;;;;;11.25;92.85;101390.63;5019314;28;20021;-71
2023/01/04 12:24:00;;;;;;;1.00;0.70;;;;;;;11.25;93.21;101388.69;5030689;28;20095;-72
2023/01/04 12:26:25;;;;;;;0.98;0.70;;;;;;;11.26;93.44;101395.09;5024008;28;20026;-70